createdAt,value
2023-03-21T00:01:53.637Z,7.53
2023-03-21T00:04:22.085Z,8.43
2023-03-21T00:06:48.974Z,6.20
2023-03-21T00:09:15.877Z,8.37
2023-03-21T00:11:42.787Z,8.73
2023-03-21T00:14:15.156Z,7.10
2023-03-21T00:16:42.237Z,6.00
2023-03-21T00:19:10.404Z,6.43
2023-03-21T00:21:51.820Z,6.33
2023-03-21T00:24:25.913Z,5.57
2023-03-21T00:26:53.022Z,6.57
2023-03-21T00:29:19.866Z,7.17
2023-03-21T00:31:46.675Z,7.30
2023-03-21T00:36:45.255Z,9.63
2023-03-21T00:39:12.132Z,6.10
2023-03-21T00:41:42.777Z,6.67
2023-03-21T00:44:15.783Z,8.23
2023-03-21T00:46:54.469Z,6.87
2023-03-21T00:49:33.984Z,7.60
2023-03-21T00:52:14.552Z,6.60
2023-03-21T00:54:52.041Z,6.00
2023-03-21T00:57:21.979Z,7.20
2023-03-21T00:59:50.982Z,5.90
2023-03-21T01:02:22.803Z,7.23
2023-03-21T01:04:50.518Z,6.80
2023-03-21T01:07:17.276Z,6.70
2023-03-21T01:09:44.103Z,5.80
2023-03-21T01:12:11.046Z,8.07
2023-03-21T01:14:38.142Z,5.80
2023-03-21T01:17:05.477Z,6.43
2023-03-21T01:19:50.282Z,6.63
2023-03-21T01:22:18.238Z,5.97
2023-03-21T01:24:53.861Z,6.13
2023-03-21T01:27:22.126Z,5.90
2023-03-21T01:29:48.907Z,6.80
2023-03-21T01:32:15.643Z,6.50
2023-03-21T01:34:42.420Z,6.53
2023-03-21T01:37:09.379Z,7.70
2023-03-21T01:39:36.728Z,7.10
2023-03-21T01:42:03.555Z,7.17
2023-03-21T01:44:30.833Z,5.80
2023-03-21T01:47:13.410Z,6.30
2023-03-21T01:49:45.952Z,7.40
2023-03-21T01:52:33.492Z,6.33
2023-03-21T01:55:07.157Z,7.43
2023-03-21T01:57:49.236Z,6.20
2023-03-21T02:00:26.761Z,8.90
2023-03-21T02:03:09.534Z,6.17
2023-03-21T02:06:00.591Z,11.53
2023-03-21T02:08:38.689Z,6.17
2023-03-21T02:11:07.307Z,6.33
2023-03-21T02:13:34.504Z,7.50
2023-03-21T02:16:24.207Z,6.60
2023-03-21T02:19:06.667Z,6.47
2023-03-21T02:21:55.921Z,6.20
2023-03-21T02:24:46.271Z,6.00
2023-03-21T02:27:19.029Z,7.77
2023-03-21T02:30:02.169Z,6.93
2023-03-21T02:32:59.911Z,7.13
2023-03-21T02:35:54.422Z,9.60
2023-03-21T02:38:31.873Z,5.13
2023-03-21T02:41:10.130Z,8.90
2023-03-21T02:44:14.059Z,7.17
2023-03-21T02:46:59.714Z,7.97
2023-03-21T02:49:47.281Z,6.87
2023-03-21T02:52:37.326Z,7.00
2023-03-21T02:55:14.238Z,5.37
2023-03-21T02:57:46.683Z,5.73
2023-03-21T03:00:19.062Z,4.53
2023-03-21T03:02:47.555Z,5.07
2023-03-21T03:05:22.276Z,5.70
2023-03-21T03:08:07.844Z,5.67
2023-03-21T03:10:53.230Z,6.37
2023-03-21T03:13:48.499Z,5.77
2023-03-21T03:16:18.633Z,7.00
2023-03-21T03:18:53.579Z,7.20
2023-03-21T03:22:01.457Z,6.23
2023-03-21T03:24:39.579Z,6.17
2023-03-21T03:27:19.848Z,8.00
2023-03-21T03:29:49.227Z,8.77
2023-03-21T03:32:21.027Z,7.87
2023-03-21T03:34:56.294Z,6.47
2023-03-21T03:37:27.707Z,6.40
2023-03-21T03:40:06.963Z,8.43
2023-03-21T03:42:42.080Z,6.73
2023-03-21T03:45:10.955Z,5.93
2023-03-21T03:48:04.384Z,7.53
2023-03-21T03:50:40.002Z,6.87
2023-03-21T03:53:18.627Z,6.27
2023-03-21T03:55:47.480Z,6.20
2023-03-21T03:58:23.200Z,7.27
2023-03-21T04:00:53.667Z,6.80
2023-03-21T04:03:20.971Z,6.30
2023-03-21T04:05:47.780Z,7.93
2023-03-21T04:08:15.457Z,6.73
2023-03-21T04:10:54.350Z,7.30
2023-03-21T04:13:21.199Z,7.17
2023-03-21T04:15:48.047Z,8.30
2023-03-21T04:18:15.181Z,8.70
2023-03-21T04:20:42.344Z,6.63
2023-03-21T04:23:09.077Z,5.40
2023-03-21T04:25:38.614Z,6.27
2023-03-21T04:28:07.277Z,8.70
2023-03-21T04:30:34.208Z,7.57
2023-03-21T04:33:01.270Z,6.23
2023-03-21T04:35:28.565Z,6.67
2023-03-21T04:37:55.960Z,6.67
2023-03-21T04:40:24.748Z,6.47
2023-03-21T04:42:51.786Z,6.80
2023-03-21T04:45:18.559Z,7.07
2023-03-21T04:47:45.624Z,7.10
2023-03-21T04:50:13.750Z,7.07
2023-03-21T04:52:40.642Z,6.90
2023-03-21T04:55:10.241Z,8.60
2023-03-21T04:57:38.385Z,6.30
2023-03-21T05:00:10.609Z,8.30
2023-03-21T05:02:38.653Z,6.50
2023-03-21T05:05:05.974Z,6.80
2023-03-21T05:07:32.856Z,5.57
2023-03-21T05:10:02.213Z,6.57
2023-03-21T05:12:29.286Z,8.57
2023-03-21T05:14:56.056Z,10.80
2023-03-21T05:17:28.508Z,7.53
2023-03-21T05:19:56.481Z,7.10
2023-03-21T05:22:24.738Z,7.40
2023-03-21T05:24:51.568Z,7.33
2023-03-21T05:27:34.318Z,6.47
2023-03-21T05:30:04.024Z,7.00
2023-03-21T05:32:31.098Z,8.77
2023-03-21T05:34:57.999Z,8.27
2023-03-21T05:37:24.955Z,5.97
2023-03-21T05:39:52.187Z,7.10
2023-03-21T05:42:19.594Z,11.17
2023-03-21T05:44:46.790Z,9.93
2023-03-21T05:47:14.732Z,7.70
2023-03-21T05:49:41.704Z,7.03
2023-03-21T05:52:08.751Z,9.50
2023-03-21T05:54:36.423Z,7.53
2023-03-21T05:57:04.628Z,7.30
2023-03-21T05:59:31.435Z,8.40
2023-03-21T06:01:58.376Z,7.90
2023-03-21T06:04:25.748Z,11.07
2023-03-21T06:06:53.708Z,9.33
2023-03-21T06:09:22.416Z,12.20
2023-03-21T06:11:51.912Z,13.30
2023-03-21T06:14:20.077Z,10.53
2023-03-21T06:16:46.875Z,10.40
2023-03-21T06:19:14.035Z,9.70
2023-03-21T06:21:41.125Z,9.70
2023-03-21T06:24:08.425Z,7.27
2023-03-21T06:26:35.339Z,10.80
2023-03-21T06:29:02.400Z,9.07
2023-03-21T06:31:29.233Z,7.77
2023-03-21T06:33:56.093Z,9.97
2023-03-21T06:36:36.716Z,9.37
2023-03-21T06:39:04.909Z,8.77
2023-03-21T06:41:31.656Z,10.43
2023-03-21T06:43:58.568Z,9.87
2023-03-21T06:46:25.425Z,8.53
2023-03-21T06:48:52.205Z,7.33
2023-03-21T06:51:19.063Z,8.57
2023-03-21T06:53:45.938Z,15.73
2023-03-21T06:56:14.426Z,10.37
2023-03-21T06:58:41.532Z,8.57
2023-03-21T07:01:08.524Z,9.80
2023-03-21T07:03:35.554Z,9.97
2023-03-21T07:06:13.670Z,10.87
2023-03-21T07:08:41.545Z,10.67
2023-03-21T07:11:09.660Z,9.30
2023-03-21T07:13:36.774Z,9.57
2023-03-21T07:16:03.791Z,8.67
2023-03-21T07:18:31.092Z,9.37
2023-03-21T07:20:58.640Z,9.07
2023-03-21T07:23:26.389Z,8.07
2023-03-21T07:25:54.248Z,11.37
2023-03-21T07:28:22.224Z,7.40
2023-03-21T07:30:55.412Z,7.20
2023-03-21T07:33:23.209Z,7.80
2023-03-21T07:35:51.472Z,7.33
2023-03-21T07:38:19.111Z,6.87
2023-03-21T07:40:47.292Z,10.03
2023-03-21T07:43:15.499Z,13.27
2023-03-21T07:45:42.873Z,11.43
2023-03-21T07:48:12.918Z,9.53
2023-03-21T07:50:41.048Z,7.37
2023-03-21T07:53:08.873Z,7.70
2023-03-21T07:55:36.263Z,8.70
2023-03-21T07:58:04.099Z,6.87
2023-03-21T08:00:31.580Z,7.37
2023-03-21T08:02:59.711Z,7.00
2023-03-21T08:05:34.551Z,6.83
2023-03-21T08:08:02.011Z,8.63
2023-03-21T08:10:29.284Z,6.97
2023-03-21T08:12:56.549Z,8.10
2023-03-21T08:15:23.740Z,8.63
2023-03-21T08:17:50.657Z,11.03
2023-03-21T08:20:21.204Z,6.70
2023-03-21T08:22:49.394Z,10.27
2023-03-21T08:25:18.227Z,7.83
2023-03-21T08:27:46.697Z,6.50
2023-03-21T08:30:16.560Z,7.37
2023-03-21T08:32:44.341Z,7.90
2023-03-21T08:35:13.687Z,7.60
2023-03-21T08:37:41.391Z,8.40
2023-03-21T08:40:13.399Z,6.80
2023-03-21T08:42:42.001Z,10.73
2023-03-21T08:45:10.129Z,8.40
2023-03-21T08:47:37.231Z,7.73
2023-03-21T08:50:06.860Z,7.57
2023-03-21T08:52:34.145Z,9.67
2023-03-21T08:55:02.269Z,7.70
2023-03-21T08:57:30.064Z,7.93
2023-03-21T08:59:57.165Z,6.90
2023-03-21T09:02:24.184Z,8.30
2023-03-21T09:04:54.905Z,7.53
2023-03-21T09:07:22.275Z,6.73
2023-03-21T09:10:08.144Z,7.40
2023-03-21T09:12:39.283Z,7.73
2023-03-21T09:15:07.443Z,6.80
2023-03-21T09:17:34.402Z,5.40
2023-03-21T09:20:05.229Z,6.37
2023-03-21T09:22:32.480Z,6.80
2023-03-21T09:24:59.284Z,4.87
2023-03-21T09:27:28.207Z,5.17
2023-03-21T09:29:55.627Z,4.30
2023-03-21T09:32:22.375Z,3.80
2023-03-21T09:34:49.124Z,6.17
2023-03-21T09:37:16.543Z,5.23
2023-03-21T09:39:45.445Z,7.07
2023-03-21T09:42:34.122Z,5.93
2023-03-21T09:45:25.961Z,4.53
2023-03-21T09:47:54.048Z,5.30
2023-03-21T09:50:27.371Z,5.10
2023-03-21T09:53:05.861Z,4.43
2023-03-21T09:55:37.823Z,4.80
2023-03-21T09:58:05.004Z,4.10
2023-03-21T10:00:40.154Z,5.77
2023-03-21T10:03:26.171Z,4.70
2023-03-21T10:05:58.852Z,6.80
2023-03-21T10:08:32.098Z,6.20
2023-03-21T10:11:21.733Z,5.60
2023-03-21T10:14:19.465Z,4.43
2023-03-21T10:16:52.598Z,3.33
2023-03-21T10:19:20.305Z,3.70
2023-03-21T10:22:00.861Z,5.70
2023-03-21T10:24:31.874Z,7.00
2023-03-21T10:26:59.256Z,3.70
2023-03-21T10:29:32.682Z,5.03
2023-03-21T10:32:00.523Z,4.70
2023-03-21T10:34:38.163Z,5.23
2023-03-21T10:37:05.911Z,4.40
2023-03-21T10:39:36.800Z,3.73
2023-03-21T10:42:04.162Z,5.37
2023-03-21T10:44:34.206Z,3.67
2023-03-21T10:47:08.730Z,4.73
2023-03-21T10:50:13.049Z,4.17
2023-03-21T10:52:28.815Z,5.73
2023-03-21T10:55:28.943Z,4.60
2023-03-21T10:58:08.691Z,4.67
2023-03-21T11:00:39.444Z,4.37
2023-03-21T11:03:07.066Z,3.83
2023-03-21T11:05:40.906Z,5.50
2023-03-21T11:08:15.301Z,5.33
2023-03-21T11:11:02.212Z,6.30
2023-03-21T11:13:45.276Z,5.40
2023-03-21T11:16:23.202Z,5.70
2023-03-21T11:18:51.932Z,7.60
2023-03-21T11:21:20.090Z,6.93
2023-03-21T11:23:51.897Z,5.13
2023-03-21T11:26:30.495Z,4.83
2023-03-21T11:28:57.952Z,6.50
2023-03-21T11:31:41.111Z,5.77
2023-03-21T11:34:09.592Z,6.73
2023-03-21T11:36:39.175Z,5.63
2023-03-21T11:39:15.421Z,4.80
2023-03-21T11:41:47.454Z,4.77
2023-03-21T11:44:43.009Z,4.57
2023-03-21T11:47:11.389Z,4.53
2023-03-21T11:49:38.320Z,6.43
2023-03-21T11:52:38.011Z,4.17
2023-03-21T11:55:11.407Z,5.30
2023-03-21T11:58:13.535Z,5.57
2023-03-21T12:01:01.170Z,4.73
2023-03-21T12:03:45.139Z,4.80
2023-03-21T12:06:38.633Z,4.87
2023-03-21T12:09:34.204Z,5.70
2023-03-21T12:12:29.986Z,4.90
2023-03-21T12:15:41.910Z,5.77
2023-03-21T12:18:35.854Z,6.00
2023-03-21T12:21:27.890Z,4.60
2023-03-21T12:24:11.775Z,5.30
2023-03-21T12:26:50.350Z,4.30
2023-03-21T12:29:30.095Z,6.97
2023-03-21T12:32:35.605Z,4.40
2023-03-21T12:35:29.019Z,6.20
2023-03-21T12:38:16.058Z,5.67
2023-03-21T12:40:48.846Z,5.17
2023-03-21T12:43:23.033Z,6.13
2023-03-21T12:45:55.792Z,6.17
2023-03-21T12:48:33.702Z,5.03
2023-03-21T12:51:04.098Z,5.30
2023-03-21T12:54:10.882Z,9.37
2023-03-21T12:56:46.702Z,4.90
2023-03-21T12:59:40.639Z,5.30
2023-03-21T13:02:28.928Z,5.33
2023-03-21T13:05:27.620Z,5.60
2023-03-21T13:08:10.061Z,5.03
2023-03-21T13:10:37.228Z,8.80
2023-03-21T13:13:09.943Z,5.57
2023-03-21T13:15:58.127Z,4.70
2023-03-21T13:18:59.136Z,5.43
2023-03-21T13:21:28.709Z,5.63
2023-03-21T13:24:26.196Z,4.60
2023-03-21T13:27:04.290Z,4.90
2023-03-21T13:29:32.894Z,4.43
2023-03-21T13:32:25.027Z,4.60
2023-03-21T13:35:09.722Z,4.27
2023-03-21T13:37:49.098Z,4.67
2023-03-21T13:40:37.722Z,4.40
2023-03-21T13:43:04.948Z,4.70
2023-03-21T13:45:51.267Z,3.93
2023-03-21T13:49:04.194Z,4.37
2023-03-21T13:51:36.989Z,4.20
2023-03-21T13:54:18.162Z,4.00
2023-03-21T13:56:45.258Z,4.70
2023-03-21T13:59:17.648Z,3.93
2023-03-21T14:02:17.737Z,3.57
2023-03-21T14:05:03.649Z,4.07
2023-03-21T14:07:34.942Z,4.23
2023-03-21T14:10:06.644Z,4.23
2023-03-21T14:12:44.549Z,4.13
2023-03-21T14:15:20.293Z,5.30
2023-03-21T14:17:51.453Z,4.47
2023-03-21T14:20:32.954Z,6.33
2023-03-21T14:23:00.277Z,4.77
2023-03-21T14:25:44.385Z,5.10
2023-03-21T14:28:29.818Z,5.53
2023-03-21T14:31:00.548Z,5.07
2023-03-21T14:33:35.694Z,5.00
2023-03-21T14:36:10.707Z,6.20
2023-03-21T14:38:39.970Z,5.83
2023-03-21T14:41:21.600Z,4.30
2023-03-21T14:44:25.402Z,5.17
2023-03-21T14:47:06.376Z,4.30
2023-03-21T14:49:37.986Z,4.37
2023-03-21T14:52:10.286Z,4.87
2023-03-21T14:54:41.259Z,4.70
2023-03-21T14:57:14.410Z,4.93
2023-03-21T14:59:42.342Z,4.77
2023-03-21T15:02:32.920Z,5.33
2023-03-21T15:05:21.957Z,5.10
2023-03-21T15:08:01.029Z,6.87
2023-03-21T15:10:31.146Z,7.87
2023-03-21T15:13:13.491Z,8.03
2023-03-21T15:15:41.498Z,7.80
2023-03-21T15:18:11.267Z,5.27
2023-03-21T15:20:39.232Z,4.70
2023-03-21T15:23:26.493Z,6.73
2023-03-21T15:25:53.844Z,13.73
2023-03-21T15:28:21.044Z,4.57
2023-03-21T15:30:53.010Z,4.53
2023-03-21T15:33:20.737Z,6.50
2023-03-21T15:35:54.248Z,4.43
2023-03-21T15:38:24.648Z,4.10
2023-03-21T15:40:52.200Z,4.50
2023-03-21T15:43:20.070Z,4.20
2023-03-21T15:45:55.481Z,4.17
2023-03-21T15:48:26.951Z,17.80
2023-03-21T15:51:06.211Z,13.53
2023-03-21T15:53:34.899Z,6.17
2023-03-21T15:56:05.955Z,4.73
2023-03-21T15:58:41.645Z,4.00
2023-03-21T16:01:17.897Z,4.50
2023-03-21T16:03:56.635Z,3.77
2023-03-21T16:06:31.082Z,4.50
2023-03-21T16:09:06.498Z,5.63
2023-03-21T16:11:55.247Z,5.20
2023-03-21T16:14:23.543Z,5.27
2023-03-21T16:16:51.021Z,5.47
2023-03-21T16:19:18.391Z,6.77
2023-03-21T16:21:46.038Z,5.30
2023-03-21T16:24:13.516Z,5.30
2023-03-21T16:26:47.635Z,13.70
2023-03-21T16:29:15.753Z,6.03
2023-03-21T16:31:43.573Z,8.37
2023-03-21T16:34:10.856Z,5.13
2023-03-21T16:36:40.331Z,5.97
2023-03-21T16:39:23.019Z,4.90
2023-03-21T16:41:51.636Z,7.90
2023-03-21T16:44:18.919Z,5.27
2023-03-21T16:46:47.313Z,5.20
2023-03-21T16:49:19.066Z,5.00
2023-03-21T16:51:45.876Z,6.93
2023-03-21T16:54:12.662Z,8.77
2023-03-21T16:56:49.024Z,6.60
2023-03-21T16:59:15.816Z,8.40
2023-03-21T17:01:46.147Z,9.13
2023-03-21T17:04:13.750Z,5.73
2023-03-21T17:06:47.586Z,4.90
2023-03-21T17:09:16.335Z,5.00
2023-03-21T17:11:43.732Z,5.53
2023-03-21T17:14:11.997Z,6.77
2023-03-21T17:16:40.504Z,5.50
2023-03-21T17:19:18.682Z,5.20
2023-03-21T17:21:45.746Z,6.50
2023-03-21T17:24:12.852Z,8.60
2023-03-21T17:26:39.771Z,9.63
2023-03-21T17:29:07.327Z,6.97
2023-03-21T17:31:37.273Z,9.30
2023-03-21T17:34:04.681Z,5.87
2023-03-21T17:36:36.811Z,6.37
2023-03-21T17:39:09.126Z,7.00
2023-03-21T17:41:35.977Z,6.07
2023-03-21T17:44:03.201Z,5.53
2023-03-21T17:46:34.261Z,6.93
2023-03-21T17:49:01.150Z,6.23
2023-03-21T17:51:30.357Z,9.37
2023-03-21T17:53:57.506Z,9.87
2023-03-21T17:56:26.895Z,11.77
2023-03-21T17:58:54.540Z,12.80
2023-03-21T18:01:23.327Z,11.00
2023-03-21T18:03:51.465Z,7.83
2023-03-21T18:06:21.697Z,13.67
2023-03-21T18:08:49.472Z,10.10
2023-03-21T18:11:17.463Z,10.03
2023-03-21T18:13:45.121Z,6.83
2023-03-21T18:16:23.863Z,13.63
2023-03-21T18:18:53.798Z,10.70
2023-03-21T18:21:22.765Z,14.40
2023-03-21T18:23:50.207Z,12.83
2023-03-21T18:26:19.780Z,8.87
2023-03-21T18:29:15.070Z,10.00
2023-03-21T18:31:34.982Z,11.53
2023-03-21T18:34:01.736Z,10.87
2023-03-21T18:36:29.176Z,11.93
2023-03-21T18:38:56.862Z,14.07
2023-03-21T18:41:23.866Z,11.17
2023-03-21T18:44:14.734Z,7.40
2023-03-21T18:46:40.553Z,10.27
2023-03-21T18:49:42.175Z,8.00
2023-03-21T18:51:54.619Z,12.60
2023-03-21T18:54:21.422Z,9.90
2023-03-21T18:57:34.588Z,8.97
2023-03-21T18:59:39.350Z,9.20
2023-03-21T19:02:07.562Z,11.30
2023-03-21T19:04:34.505Z,16.13
2023-03-21T19:07:01.370Z,15.60
2023-03-21T19:09:31.963Z,10.23
2023-03-21T19:11:59.884Z,16.70
2023-03-21T19:14:27.384Z,5.83
2023-03-21T19:17:43.597Z,10.50
2023-03-21T19:19:43.763Z,11.80
2023-03-21T19:22:11.312Z,6.53
2023-03-21T19:24:39.625Z,7.73
2023-03-21T19:27:06.984Z,7.57
2023-03-21T19:29:34.004Z,12.93
2023-03-21T19:32:01.121Z,9.03
2023-03-21T19:34:29.367Z,6.87
2023-03-21T19:36:57.489Z,9.27
2023-03-21T19:39:25.149Z,8.77
2023-03-21T19:41:55.341Z,13.67
2023-03-21T19:44:30.933Z,9.70
2023-03-21T19:46:57.946Z,7.90
2023-03-21T19:49:37.005Z,7.77
2023-03-21T19:52:13.424Z,18.90
2023-03-21T19:54:40.268Z,15.23
2023-03-21T19:57:09.628Z,10.70
2023-03-21T19:59:36.547Z,7.60
2023-03-21T20:02:27.130Z,9.10
2023-03-21T20:04:50.520Z,11.20
2023-03-21T20:07:17.308Z,7.70
2023-03-21T20:09:51.950Z,11.73
2023-03-21T20:12:20.661Z,9.37
2023-03-21T20:14:49.271Z,10.23
2023-03-21T20:17:16.896Z,10.67
2023-03-21T20:19:43.733Z,8.00
2023-03-21T20:22:21.862Z,10.00
2023-03-21T20:24:54.198Z,7.93
2023-03-21T20:27:24.339Z,10.53
2023-03-21T20:32:43.830Z,8.30
2023-03-21T20:35:21.044Z,7.70
2023-03-21T20:37:54.386Z,8.40
2023-03-21T20:40:21.664Z,8.00
2023-03-21T20:42:50.293Z,7.90
2023-03-21T20:45:17.685Z,7.80
2023-03-21T20:47:44.598Z,10.30
2023-03-21T20:50:21.985Z,8.47
2023-03-21T20:53:05.426Z,8.50
2023-03-21T20:55:34.288Z,11.73
2023-03-21T20:58:02.200Z,10.77
2023-03-21T21:00:30.105Z,12.20
2023-03-21T21:02:58.083Z,12.90
2023-03-21T21:05:30.550Z,12.13
2023-03-21T21:07:59.134Z,9.97
2023-03-21T21:10:26.245Z,12.07
2023-03-21T21:12:53.363Z,10.73
2023-03-21T21:15:20.217Z,14.87
2023-03-21T21:20:36.762Z,11.00
2023-03-21T21:23:04.346Z,9.50
2023-03-21T21:25:33.491Z,11.67
2023-03-21T21:28:01.730Z,10.63
2023-03-21T21:30:29.567Z,10.27
2023-03-21T21:32:59.540Z,8.60
2023-03-21T21:35:26.968Z,8.90
2023-03-21T21:37:53.835Z,10.73
2023-03-21T21:40:23.313Z,10.20
2023-03-21T21:42:50.236Z,9.73
2023-03-21T21:45:18.332Z,11.50
2023-03-21T21:47:46.388Z,12.33
2023-03-21T21:50:13.496Z,10.50
2023-03-21T21:52:43.710Z,11.67
2023-03-21T21:55:10.868Z,13.10
2023-03-21T21:57:39.775Z,13.23
2023-03-21T22:00:12.774Z,9.50
2023-03-21T22:02:40.759Z,8.80
2023-03-21T22:05:09.031Z,9.27
2023-03-21T22:07:37.459Z,7.73
2023-03-21T22:10:05.028Z,9.37
2023-03-21T22:12:32.363Z,8.03
2023-03-21T22:14:59.218Z,9.07
2023-03-21T22:17:26.244Z,7.73
2023-03-21T22:20:05.002Z,8.17
2023-03-21T22:22:34.469Z,7.97
2023-03-21T22:25:01.304Z,8.47
2023-03-21T22:27:28.097Z,8.37
2023-03-21T22:29:54.821Z,8.07
2023-03-21T22:32:21.563Z,8.20
2023-03-21T22:34:48.294Z,9.57
2023-03-21T22:37:21.113Z,8.53
2023-03-21T22:39:47.770Z,10.77
2023-03-21T22:42:14.537Z,10.37
2023-03-21T22:44:41.335Z,9.53
2023-03-21T22:47:10.651Z,12.17
2023-03-21T22:49:38.571Z,14.50
2023-03-21T22:52:06.422Z,9.50
2023-03-21T22:54:33.353Z,9.50
2023-03-21T22:57:00.529Z,14.97
2023-03-21T22:59:27.918Z,9.27
2023-03-21T23:01:54.984Z,8.77
2023-03-21T23:04:21.824Z,12.17
2023-03-21T23:06:48.720Z,9.00
2023-03-21T23:09:17.494Z,9.47
2023-03-21T23:11:46.233Z,8.97
2023-03-21T23:14:15.297Z,8.30
2023-03-21T23:16:42.828Z,9.60
2023-03-21T23:19:11.032Z,14.00
2023-03-21T23:21:38.508Z,9.20
2023-03-21T23:24:06.485Z,9.13
2023-03-21T23:26:34.174Z,9.90
2023-03-21T23:29:00.879Z,8.47
2023-03-21T23:31:28.038Z,10.13
2023-03-21T23:33:57.657Z,11.53
2023-03-21T23:36:24.460Z,12.87
2023-03-21T23:38:51.258Z,8.37
2023-03-21T23:41:21.034Z,9.67
2023-03-21T23:43:48.613Z,8.30
2023-03-21T23:46:16.648Z,8.93
2023-03-21T23:48:44.630Z,8.80
2023-03-21T23:51:12.987Z,8.87
2023-03-21T23:53:40.126Z,10.07
2023-03-21T23:56:22.009Z,8.47
2023-03-21T23:58:52.776Z,9.60
